Time;durP1;ratioP1;P1;durP2;ratioP2;P2;SDS_P1;SDS_P2;PMS_P1;PMS_P2;Temp;Humidity;BMP_temperature;BMP_pressure;BME280_temperature;BME280_humidity;BME280_pressure;Samples;Min_cycle;Max_cycle;Signal;HPM_P1;HPM_P2
2023/12/07 00:01:21;;;;;;;22.70;12.18;;;;;;;;;;5016892;28;100410;-63
2023/12/07 00:03:48;;;;;;;22.02;11.32;;;;;;;;;;5016893;27;98578;-63
2023/12/07 00:06:14;;;;;;;21.15;11.65;;;;;;;;;;5016577;27;100294;-63
2023/12/07 00:08:40;;;;;;;20.08;11.75;;;;;;;;;;5011470;27;99563;-63
2023/12/07 00:11:07;;;;;;;18.13;11.60;;;;;;;;;;5015060;28;98598;-62
2023/12/07 00:13:33;;;;;;;18.80;11.30;;;;;;;;;;5013740;28;99255;-63
2023/12/07 00:15:59;;;;;;;22.92;10.85;;;;;;;;;;5014792;27;97966;-63
2023/12/07 00:18:26;;;;;;;20.50;11.50;;;;;;;;;;5015228;27;98644;-63
2023/12/07 00:20:52;;;;;;;21.25;10.93;;;;;;;;;;5006613;28;99497;-63
2023/12/07 00:23:19;;;;;;;17.42;10.25;;;;;;;;;;5008118;28;99545;-63
2023/12/07 00:25:45;;;;;;;17.50;10.55;;;;;;;;;;5016106;28;102560;-63
2023/12/07 00:28:12;;;;;;;20.83;10.20;;;;;;;;;;5015812;28;99481;-63
2023/12/07 00:30:38;;;;;;;20.48;10.45;;;;;;;;;;5011561;27;100054;-63
2023/12/07 00:33:04;;;;;;;17.40;10.60;;;;;;;;;;5017274;27;99487;-62
2023/12/07 00:35:31;;;;;;;18.33;10.30;;;;;;;;;;5010010;28;99488;-63
2023/12/07 00:37:57;;;;;;;22.65;11.15;;;;;;;;;;5018463;28;100100;-63
2023/12/07 00:40:24;;;;;;;15.90;10.10;;;;;;;;;;5013316;28;98694;-63
2023/12/07 00:42:50;;;;;;;19.13;10.95;;;;;;;;;;5013498;28;99973;-63
2023/12/07 00:45:17;;;;;;;19.88;10.43;;;;;;;;;;5014607;28;99511;-63
2023/12/07 00:47:43;;;;;;;17.27;9.48;;;;;;;;;;5015120;28;100256;-63
2023/12/07 00:50:12;;;;;;;15.30;10.25;;;;;;;;;;5017570;28;98768;-63
2023/12/07 00:52:38;;;;;;;18.67;10.60;;;;;;;;;;5018967;27;99159;-63
2023/12/07 00:55:05;;;;;;;17.80;10.85;;;;;;;;;;5021437;28;100203;-63
2023/12/07 00:57:37;;;;;;;20.30;10.65;;;;;;;;;;5023691;28;98542;-63
2023/12/07 01:00:04;;;;;;;26.33;11.02;;;;;;;;;;5027768;27;100150;-63
2023/12/07 01:02:31;;;;;;;21.65;11.02;;;;;;;;;;5014175;27;98610;-63
2023/12/07 01:04:57;;;;;;;19.23;11.25;;;;;;;;;;5022677;28;100315;-63
2023/12/07 01:07:24;;;;;;;20.15;10.90;;;;;;;;;;5023505;27;100652;-61
2023/12/07 01:09:50;;;;;;;18.60;10.57;;;;;;;;;;5020449;27;99005;-62
2023/12/07 01:12:16;;;;;;;16.90;9.55;;;;;;;;;;5021594;28;99571;-63
2023/12/07 01:14:43;;;;;;;17.80;9.13;;;;;;;;;;5015724;28;99472;-63
2023/12/07 01:17:09;;;;;;;16.30;10.00;;;;;;;;;;5025237;28;98667;-63
2023/12/07 01:19:36;;;;;;;15.80;9.02;;;;;;;;;;5019212;28;99271;-63
2023/12/07 01:22:02;;;;;;;15.82;8.77;;;;;;;;;;5024094;27;99463;-63
2023/12/07 01:24:29;;;;;;;17.60;8.90;;;;;;;;;;5017238;28;100234;-63
2023/12/07 01:26:55;;;;;;;13.90;9.10;;;;;;;;;;5021267;27;99496;-63
2023/12/07 01:29:22;;;;;;;15.02;8.65;;;;;;;;;;5023167;28;98251;-63
2023/12/07 01:31:48;;;;;;;17.25;8.77;;;;;;;;;;5018237;28;98539;-63
2023/12/07 01:34:15;;;;;;;13.60;7.53;;;;;;;;;;5017003;27;103128;-63
2023/12/07 01:36:41;;;;;;;14.75;8.00;;;;;;;;;;5021506;27;99301;-63
2023/12/07 01:39:11;;;;;;;15.65;8.55;;;;;;;;;;5026107;28;99712;-62
2023/12/07 01:41:39;;;;;;;13.10;8.15;;;;;;;;;;5023181;28;99300;-63
2023/12/07 01:44:05;;;;;;;15.40;7.95;;;;;;;;;;5024249;28;98659;-63
2023/12/07 01:46:32;;;;;;;14.98;8.20;;;;;;;;;;5016605;28;99482;-63
2023/12/07 01:48:59;;;;;;;13.05;8.40;;;;;;;;;;5023018;27;98549;-63
2023/12/07 01:51:26;;;;;;;12.13;8.35;;;;;;;;;;5014575;28;101690;-63
2023/12/07 01:53:52;;;;;;;16.20;7.93;;;;;;;;;;5014611;28;100089;-62
2023/12/07 01:56:19;;;;;;;13.68;8.18;;;;;;;;;;5022814;27;98692;-63
2023/12/07 01:58:45;;;;;;;13.82;7.35;;;;;;;;;;5020186;28;100254;-63
2023/12/07 02:01:12;;;;;;;16.35;8.68;;;;;;;;;;5021224;28;101225;-63
2023/12/07 02:03:41;;;;;;;14.60;7.80;;;;;;;;;;5020943;28;98490;-63
2023/12/07 02:06:08;;;;;;;15.18;8.25;;;;;;;;;;5021489;28;99650;-63
2023/12/07 02:08:35;;;;;;;16.60;8.75;;;;;;;;;;5019807;28;98767;-63
2023/12/07 02:11:02;;;;;;;14.57;7.40;;;;;;;;;;5017122;28;100260;-63
2023/12/07 02:13:28;;;;;;;14.55;8.15;;;;;;;;;;5018605;27;101699;-62
2023/12/07 02:15:55;;;;;;;14.75;7.78;;;;;;;;;;5014659;28;98730;-63
2023/12/07 02:18:28;;;;;;;24.25;8.68;;;;;;;;;;5012695;28;99520;-63
2023/12/07 02:21:00;;;;;;;12.20;7.38;;;;;;;;;;5015619;28;100024;-61
2023/12/07 02:23:28;;;;;;;14.38;7.93;;;;;;;;;;5008925;28;98516;-61
2023/12/07 02:26:13;;;;;;;16.42;8.35;;;;;;;;;;5013742;28;99336;-61
2023/12/07 02:28:39;;;;;;;12.88;7.80;;;;;;;;;;5023566;28;99492;-61
2023/12/07 02:31:06;;;;;;;16.30;8.05;;;;;;;;;;5020236;27;99230;-61
2023/12/07 02:33:32;;;;;;;19.25;8.63;;;;;;;;;;5015633;28;99511;-61
2023/12/07 02:35:59;;;;;;;14.10;7.88;;;;;;;;;;5019354;27;98652;-61
2023/12/07 02:38:26;;;;;;;18.30;7.65;;;;;;;;;;5019120;28;100559;-61
2023/12/07 02:40:54;;;;;;;12.23;7.60;;;;;;;;;;5017211;27;99158;-61
2023/12/07 02:43:20;;;;;;;13.00;7.18;;;;;;;;;;5015344;27;97807;-61
2023/12/07 02:45:47;;;;;;;15.43;8.02;;;;;;;;;;5019433;28;98605;-61
2023/12/07 02:48:14;;;;;;;14.10;8.30;;;;;;;;;;5021037;27;99498;-61
2023/12/07 02:50:40;;;;;;;24.85;7.55;;;;;;;;;;5015482;28;99209;-61
2023/12/07 02:53:07;;;;;;;14.27;7.82;;;;;;;;;;5015459;27;99461;-61
2023/12/07 02:55:33;;;;;;;9.88;6.78;;;;;;;;;;5016977;28;98544;-59
2023/12/07 02:58:00;;;;;;;16.73;8.13;;;;;;;;;;5019865;28;100200;-61
2023/12/07 03:00:26;;;;;;;14.52;7.70;;;;;;;;;;5016891;27;99454;-62
2023/12/07 03:02:52;;;;;;;14.30;8.25;;;;;;;;;;5015633;28;98650;-61
2023/12/07 03:05:20;;;;;;;14.90;8.40;;;;;;;;;;5021157;28;99202;-61
2023/12/07 03:07:46;;;;;;;14.85;7.85;;;;;;;;;;5016453;27;98684;-61
2023/12/07 03:10:13;;;;;;;14.80;8.38;;;;;;;;;;5019695;28;98926;-61
2023/12/07 03:12:39;;;;;;;18.30;8.63;;;;;;;;;;5014328;28;99504;-61
2023/12/07 03:15:06;;;;;;;15.80;8.00;;;;;;;;;;5014793;28;99372;-61
2023/12/07 03:17:32;;;;;;;14.20;7.65;;;;;;;;;;5020227;28;99835;-61
2023/12/07 03:19:58;;;;;;;13.85;7.78;;;;;;;;;;5013467;28;100821;-61
2023/12/07 03:22:25;;;;;;;17.42;8.20;;;;;;;;;;5019223;28;99048;-61
2023/12/07 03:24:52;;;;;;;16.73;7.93;;;;;;;;;;5013185;28;99401;-61
2023/12/07 03:27:19;;;;;;;14.25;7.25;;;;;;;;;;5015117;28;100974;-61
2023/12/07 03:29:45;;;;;;;12.57;7.18;;;;;;;;;;5006869;27;101532;-61
2023/12/07 03:32:12;;;;;;;12.05;6.90;;;;;;;;;;5017133;28;99085;-61
2023/12/07 03:34:38;;;;;;;10.98;7.10;;;;;;;;;;5016220;27;98881;-61
2023/12/07 03:37:05;;;;;;;13.57;7.38;;;;;;;;;;5019560;27;99123;-61
2023/12/07 03:39:32;;;;;;;11.63;6.70;;;;;;;;;;5015199;28;101315;-61
2023/12/07 03:41:59;;;;;;;15.23;8.30;;;;;;;;;;5014676;28;98555;-61
2023/12/07 03:44:26;;;;;;;10.02;7.05;;;;;;;;;;5012122;28;100195;-61
2023/12/07 03:46:53;;;;;;;12.57;7.38;;;;;;;;;;5014175;28;99484;-61
2023/12/07 03:49:19;;;;;;;13.25;7.35;;;;;;;;;;5020190;27;98530;-61
2023/12/07 03:51:46;;;;;;;16.80;7.53;;;;;;;;;;5017795;27;99133;-61
2023/12/07 03:54:12;;;;;;;11.60;6.90;;;;;;;;;;5022457;27;99546;-61
2023/12/07 03:56:40;;;;;;;12.95;7.10;;;;;;;;;;5017164;28;99224;-61
2023/12/07 03:59:07;;;;;;;10.38;6.65;;;;;;;;;;5015839;28;100467;-61
2023/12/07 04:01:33;;;;;;;24.30;7.75;;;;;;;;;;5016713;27;98546;-61
2023/12/07 04:04:00;;;;;;;15.65;7.53;;;;;;;;;;5017922;27;99187;-61
2023/12/07 04:06:27;;;;;;;12.13;7.50;;;;;;;;;;5012057;28;99522;-61
2023/12/07 04:08:53;;;;;;;11.30;7.60;;;;;;;;;;5015448;27;98572;-61
2023/12/07 04:11:19;;;;;;;15.85;7.78;;;;;;;;;;5018553;28;99105;-61
2023/12/07 04:13:46;;;;;;;15.95;8.40;;;;;;;;;;5014712;28;99934;-61
2023/12/07 04:16:12;;;;;;;11.40;7.80;;;;;;;;;;5018011;28;98637;-64
2023/12/07 04:18:39;;;;;;;18.85;7.95;;;;;;;;;;5012314;28;99407;-61
2023/12/07 04:21:05;;;;;;;20.63;8.38;;;;;;;;;;5016913;28;97960;-61
2023/12/07 04:23:32;;;;;;;18.45;8.65;;;;;;;;;;5011045;28;98837;-61
2023/12/07 04:25:58;;;;;;;20.17;8.77;;;;;;;;;;5010840;28;99625;-62
2023/12/07 04:28:24;;;;;;;20.38;9.30;;;;;;;;;;5014820;28;99280;-61
2023/12/07 04:30:51;;;;;;;19.15;9.38;;;;;;;;;;5011854;28;99995;-61
2023/12/07 04:33:17;;;;;;;13.32;8.35;;;;;;;;;;5017018;28;100539;-61
2023/12/07 04:35:44;;;;;;;15.85;9.18;;;;;;;;;;5019965;28;98620;-61
2023/12/07 04:38:10;;;;;;;13.18;8.93;;;;;;;;;;5020786;28;100211;-62
2023/12/07 04:40:37;;;;;;;12.98;8.07;;;;;;;;;;5015243;27;98531;-62
2023/12/07 04:43:04;;;;;;;16.25;8.80;;;;;;;;;;5010501;28;100281;-63
2023/12/07 04:45:30;;;;;;;13.07;8.55;;;;;;;;;;5016177;28;99123;-63
2023/12/07 04:47:57;;;;;;;39.85;10.20;;;;;;;;;;5011747;28;98533;-63
2023/12/07 04:50:24;;;;;;;17.50;10.30;;;;;;;;;;5014815;28;99201;-63
2023/12/07 04:52:50;;;;;;;33.60;11.70;;;;;;;;;;5013261;28;101154;-63
2023/12/07 04:55:17;;;;;;;20.15;11.02;;;;;;;;;;5012683;28;98485;-63
2023/12/07 04:57:43;;;;;;;29.65;11.65;;;;;;;;;;5018748;27;99285;-64
2023/12/07 05:00:11;;;;;;;30.23;11.93;;;;;;;;;;5015989;28;98776;-62
2023/12/07 05:02:37;;;;;;;30.02;10.77;;;;;;;;;;5017142;27;99186;-64
2023/12/07 05:05:05;;;;;;;37.83;12.07;;;;;;;;;;5018743;27;100015;-64
2023/12/07 05:07:31;;;;;;;20.02;11.65;;;;;;;;;;5013898;27;98488;-63
2023/12/07 05:09:58;;;;;;;25.45;10.82;;;;;;;;;;5014373;28;99222;-63
2023/12/07 05:12:24;;;;;;;51.67;10.38;;;;;;;;;;5011999;27;99400;-62
2023/12/07 05:14:51;;;;;;;40.88;11.13;;;;;;;;;;5012575;28;98569;-62
2023/12/07 05:17:17;;;;;;;36.97;10.70;;;;;;;;;;5016145;28;99586;-63
2023/12/07 05:19:45;;;;;;;27.15;10.38;;;;;;;;;;5015448;28;99544;-64
2023/12/07 05:22:11;;;;;;;43.40;9.88;;;;;;;;;;5015270;27;100294;-63
2023/12/07 05:24:37;;;;;;;53.35;11.70;;;;;;;;;;5016580;28;99498;-63
2023/12/07 05:27:04;;;;;;;54.08;11.18;;;;;;;;;;5018489;27;98630;-63
2023/12/07 05:29:30;;;;;;;20.27;9.57;;;;;;;;;;5014741;27;100303;-63
2023/12/07 05:31:57;;;;;;;61.72;10.38;;;;;;;;;;5015797;28;100561;-63
2023/12/07 05:34:23;;;;;;;26.95;10.18;;;;;;;;;;5017150;28;98123;-63
2023/12/07 05:36:49;;;;;;;27.52;10.48;;;;;;;;;;5014414;27;98560;-63
2023/12/07 05:39:17;;;;;;;67.70;11.00;;;;;;;;;;5013575;28;99852;-62
2023/12/07 05:41:43;;;;;;;91.80;13.43;;;;;;;;;;5022206;27;99696;-63
2023/12/07 05:44:10;;;;;;;68.60;18.30;;;;;;;;;;5020525;27;100796;-63
2023/12/07 05:46:36;;;;;;;93.75;12.15;;;;;;;;;;5017133;28;98577;-63
2023/12/07 05:49:03;;;;;;;66.90;12.88;;;;;;;;;;5014306;27;99151;-63
2023/12/07 05:51:29;;;;;;;83.18;12.27;;;;;;;;;;5019187;27;99451;-65
2023/12/07 05:53:56;;;;;;;82.75;11.48;;;;;;;;;;5014196;28;98571;-64
2023/12/07 05:56:22;;;;;;;74.32;12.95;;;;;;;;;;5018267;27;98530;-62
2023/12/07 05:58:48;;;;;;;45.72;11.32;;;;;;;;;;5019293;27;99507;-62
2023/12/07 06:01:18;;;;;;;80.43;13.18;;;;;;;;;;5017517;28;98701;-63
2023/12/07 06:03:45;;;;;;;89.93;12.27;;;;;;;;;;5015375;28;100082;-63
2023/12/07 06:06:11;;;;;;;68.68;12.98;;;;;;;;;;5015963;27;99386;-64
2023/12/07 06:08:38;;;;;;;76.75;14.20;;;;;;;;;;5018060;28;100946;-63
2023/12/07 06:11:05;;;;;;;69.03;13.15;;;;;;;;;;5011518;28;100807;-63
2023/12/07 06:13:31;;;;;;;63.08;12.82;;;;;;;;;;5012110;28;98620;-63
2023/12/07 06:15:57;;;;;;;60.28;13.15;;;;;;;;;;5014366;28;99139;-63
2023/12/07 06:18:24;;;;;;;60.78;13.45;;;;;;;;;;5019339;28;100452;-63
2023/12/07 06:20:51;;;;;;;70.75;14.73;;;;;;;;;;5019655;27;98427;-63
2023/12/07 06:23:17;;;;;;;97.40;14.55;;;;;;;;;;5016373;27;100179;-64
2023/12/07 06:25:44;;;;;;;35.00;13.27;;;;;;;;;;5018406;27;99833;-63
2023/12/07 06:28:11;;;;;;;70.30;13.30;;;;;;;;;;5016745;28;99343;-63
2023/12/07 06:30:37;;;;;;;42.17;12.35;;;;;;;;;;5013951;28;99936;-63
2023/12/07 06:33:04;;;;;;;53.53;13.05;;;;;;;;;;5017987;27;99321;-63
2023/12/07 06:35:30;;;;;;;68.82;13.50;;;;;;;;;;5014505;27;99271;-63
2023/12/07 06:37:57;;;;;;;58.08;13.20;;;;;;;;;;5015344;27;99382;-63
2023/12/07 06:40:23;;;;;;;68.15;12.52;;;;;;;;;;5018409;28;98813;-63
2023/12/07 06:42:49;;;;;;;67.88;13.63;;;;;;;;;;5016199;27;99254;-63
2023/12/07 06:45:16;;;;;;;47.88;13.38;;;;;;;;;;5009478;28;100874;-65
2023/12/07 06:47:43;;;;;;;52.75;12.65;;;;;;;;;;5024413;27;97862;-64
2023/12/07 06:50:09;;;;;;;28.75;12.75;;;;;;;;;;5010864;28;99528;-63
2023/12/07 06:52:36;;;;;;;59.38;13.85;;;;;;;;;;5014204;28;98490;-64
2023/12/07 06:55:03;;;;;;;76.07;12.45;;;;;;;;;;5017139;28;100077;-64
2023/12/07 06:57:30;;;;;;;27.63;12.63;;;;;;;;;;5016999;28;100431;-64
2023/12/07 06:59:56;;;;;;;82.18;13.68;;;;;;;;;;5018412;27;98531;-63
2023/12/07 07:02:25;;;;;;;42.20;13.60;;;;;;;;;;5012383;28;100177;-62
2023/12/07 07:04:52;;;;;;;50.30;14.18;;;;;;;;;;5009077;28;101513;-63
2023/12/07 07:07:18;;;;;;;103.43;15.77;;;;;;;;;;5017012;28;98578;-63
2023/12/07 07:09:45;;;;;;;82.70;14.65;;;;;;;;;;5013135;28;99480;-63
2023/12/07 07:12:12;;;;;;;105.22;15.25;;;;;;;;;;5017010;27;98007;-64
2023/12/07 07:14:38;;;;;;;85.72;13.23;;;;;;;;;;5011554;27;98406;-63
2023/12/07 07:17:04;;;;;;;78.75;16.15;;;;;;;;;;5017036;28;99805;-64
2023/12/07 07:19:31;;;;;;;71.95;14.30;;;;;;;;;;5016897;28;99369;-63
2023/12/07 07:21:57;;;;;;;38.10;14.65;;;;;;;;;;5017830;28;100082;-64
2023/12/07 07:24:24;;;;;;;72.90;14.80;;;;;;;;;;5015671;27;100723;-63
2023/12/07 07:26:50;;;;;;;67.50;14.70;;;;;;;;;;5019382;28;98588;-64
2023/12/07 07:29:16;;;;;;;42.28;14.55;;;;;;;;;;5018389;28;99873;-63
2023/12/07 07:31:43;;;;;;;93.15;14.75;;;;;;;;;;5014998;28;99478;-62
2023/12/07 07:34:09;;;;;;;67.10;14.52;;;;;;;;;;5013428;28;99300;-63
2023/12/07 07:36:36;;;;;;;77.93;14.15;;;;;;;;;;5018292;28;99735;-63
2023/12/07 07:39:02;;;;;;;76.80;13.25;;;;;;;;;;5018395;28;98643;-64
2023/12/07 07:41:28;;;;;;;92.00;14.23;;;;;;;;;;5014093;28;99198;-64
2023/12/07 07:43:55;;;;;;;89.50;13.25;;;;;;;;;;5011109;28;100607;-62
2023/12/07 07:46:22;;;;;;;80.68;13.32;;;;;;;;;;5013244;28;98595;-64
2023/12/07 07:48:48;;;;;;;42.63;11.43;;;;;;;;;;5017630;27;99575;-64
2023/12/07 07:51:15;;;;;;;47.90;12.80;;;;;;;;;;5019965;28;100762;-63
2023/12/07 07:53:41;;;;;;;46.25;13.23;;;;;;;;;;5017696;27;99168;-63
2023/12/07 07:56:08;;;;;;;73.20;14.02;;;;;;;;;;5013301;28;99519;-64
2023/12/07 07:58:35;;;;;;;75.57;13.82;;;;;;;;;;5010166;28;101467;-64
2023/12/07 08:01:01;;;;;;;37.50;13.38;;;;;;;;;;5018128;28;99408;-64
2023/12/07 08:03:28;;;;;;;68.35;13.20;;;;;;;;;;5017188;28;99616;-64
2023/12/07 08:05:54;;;;;;;103.82;14.27;;;;;;;;;;5018629;28;98580;-65
2023/12/07 08:08:21;;;;;;;100.63;14.23;;;;;;;;;;5016873;28;100247;-64
2023/12/07 08:10:47;;;;;;;92.90;15.80;;;;;;;;;;5016612;28;99488;-63
2023/12/07 08:13:21;;;;;;;49.97;15.43;;;;;;;;;;5018336;28;98532;-64
2023/12/07 08:15:48;;;;;;;77.40;15.80;;;;;;;;;;5018910;28;100442;-64
2023/12/07 08:18:15;;;;;;;28.02;15.45;;;;;;;;;;5012776;28;98677;-65
2023/12/07 08:20:41;;;;;;;75.22;15.32;;;;;;;;;;5009373;28;99323;-64
2023/12/07 08:23:08;;;;;;;94.90;14.77;;;;;;;;;;5017111;28;100468;-64
2023/12/07 08:25:34;;;;;;;56.45;17.63;;;;;;;;;;5016186;27;97728;-62
2023/12/07 08:28:00;;;;;;;105.82;17.05;;;;;;;;;;5012012;28;99782;-64
2023/12/07 08:30:27;;;;;;;60.65;16.35;;;;;;;;;;5015845;28;100675;-63
2023/12/07 08:32:53;;;;;;;49.90;16.55;;;;;;;;;;5016497;28;99310;-64
2023/12/07 08:35:20;;;;;;;68.47;15.93;;;;;;;;;;5021720;27;99961;-62
2023/12/07 08:37:46;;;;;;;50.20;14.60;;;;;;;;;;5013657;28;98542;-63
2023/12/07 08:40:15;;;;;;;92.43;15.93;;;;;;;;;;5007920;28;99226;-62
2023/12/07 08:42:45;;;;;;;62.15;16.63;;;;;;;;;;5015712;27;99469;-64
2023/12/07 08:45:16;;;;;;;37.95;15.07;;;;;;;;;;5011716;28;99712;-63
2023/12/07 08:47:42;;;;;;;89.13;16.77;;;;;;;;;;5024422;27;102978;-63
2023/12/07 08:50:09;;;;;;;45.60;16.50;;;;;;;;;;5016131;27;98909;-63
2023/12/07 08:52:35;;;;;;;87.70;18.67;;;;;;;;;;5016563;27;98458;-63
2023/12/07 08:55:15;;;;;;;46.85;16.33;;;;;;;;;;5018658;28;100443;-63
2023/12/07 08:57:42;;;;;;;60.70;15.93;;;;;;;;;;5015279;28;100390;-63
2023/12/07 09:00:08;;;;;;;101.78;16.33;;;;;;;;;;5019153;28;100966;-64
2023/12/07 09:02:35;;;;;;;110.85;16.58;;;;;;;;;;5013646;27;100427;-64
2023/12/07 09:05:12;;;;;;;41.42;16.35;;;;;;;;;;5019259;27;99134;-63
2023/12/07 09:07:39;;;;;;;54.28;14.23;;;;;;;;;;5015277;27;100402;-63
2023/12/07 09:10:06;;;;;;;35.80;13.95;;;;;;;;;;5017569;28;99496;-62
2023/12/07 09:12:35;;;;;;;106.68;13.63;;;;;;;;;;5016658;27;99400;-63
2023/12/07 09:15:07;;;;;;;49.40;13.15;;;;;;;;;;5018967;28;99244;-63
2023/12/07 09:17:33;;;;;;;87.93;14.35;;;;;;;;;;5022870;27;100488;-64
2023/12/07 09:20:01;;;;;;;70.55;13.18;;;;;;;;;;5021214;28;100256;-64
2023/12/07 09:22:27;;;;;;;49.97;13.50;;;;;;;;;;5023940;27;101260;-62
2023/12/07 09:25:03;;;;;;;54.53;12.10;;;;;;;;;;5013033;28;98568;-62
2023/12/07 09:27:31;;;;;;;48.65;12.15;;;;;;;;;;5009112;28;99224;-61
2023/12/07 09:29:58;;;;;;;52.65;11.82;;;;;;;;;;5017213;28;99974;-62
2023/12/07 09:32:24;;;;;;;52.75;11.50;;;;;;;;;;5017365;28;98517;-62
2023/12/07 09:35:01;;;;;;;43.10;11.43;;;;;;;;;;5019941;27;99226;-62
2023/12/07 09:37:28;;;;;;;27.55;11.10;;;;;;;;;;5018579;28;100825;-61
2023/12/07 09:39:54;;;;;;;54.40;10.60;;;;;;;;;;5019655;28;100406;-62
2023/12/07 09:42:21;;;;;;;58.83;15.23;;;;;;;;;;5019399;28;100432;-62
2023/12/07 09:44:48;;;;;;;64.57;12.88;;;;;;;;;;5018213;28;98784;-62
2023/12/07 09:47:15;;;;;;;26.65;10.20;;;;;;;;;;5014384;28;100052;-62
2023/12/07 09:49:53;;;;;;;92.93;10.70;;;;;;;;;;5018038;28;99532;-61
2023/12/07 09:52:21;;;;;;;57.60;11.07;;;;;;;;;;5021803;27;98520;-62
2023/12/07 09:54:49;;;;;;;46.60;11.65;;;;;;;;;;5015499;28;99602;-62
2023/12/07 09:57:15;;;;;;;58.92;12.02;;;;;;;;;;5010500;28;100215;-61
2023/12/07 09:59:42;;;;;;;40.55;10.65;;;;;;;;;;5018369;27;98632;-62
2023/12/07 10:02:08;;;;;;;46.08;10.57;;;;;;;;;;5022447;27;99183;-62
2023/12/07 10:04:36;;;;;;;26.23;9.85;;;;;;;;;;5016722;28;97751;-61
2023/12/07 10:07:03;;;;;;;21.25;10.10;;;;;;;;;;5019263;28;99594;-62
2023/12/07 10:09:29;;;;;;;27.02;9.10;;;;;;;;;;5016639;28;99970;-62
2023/12/07 10:12:03;;;;;;;33.90;8.90;;;;;;;;;;5019426;28;99329;-62
2023/12/07 10:14:29;;;;;;;28.23;8.35;;;;;;;;;;5019931;28;101028;-61
2023/12/07 10:16:56;;;;;;;54.47;7.93;;;;;;;;;;5020068;27;99374;-60
2023/12/07 10:19:23;;;;;;;23.95;8.40;;;;;;;;;;5018707;27;98457;-61
2023/12/07 10:21:58;;;;;;;41.25;9.18;;;;;;;;;;5020458;28;100395;-61
2023/12/07 10:24:25;;;;;;;36.70;8.38;;;;;;;;;;5024379;27;99462;-62
2023/12/07 10:26:51;;;;;;;25.80;8.50;;;;;;;;;;5020512;28;100654;-62
2023/12/07 10:29:28;;;;;;;15.63;8.13;;;;;;;;;;5016923;28;98730;-62
2023/12/07 10:31:59;;;;;;;;;;;;;;;;;;5020122;28;98608;-62
2023/12/07 10:34:26;;;;;;;39.20;7.95;;;;;;;;;;5016452;28;130069;-62
2023/12/07 10:36:53;;;;;;;27.67;9.90;;;;;;;;;;5019787;27;100215;-62
2023/12/07 10:39:20;;;;;;;69.28;8.77;;;;;;;;;;5018614;28;98494;-62
2023/12/07 10:41:58;;;;;;;22.75;9.27;;;;;;;;;;5009171;28;100250;-62
2023/12/07 10:44:26;;;;;;;19.02;9.32;;;;;;;;;;5018897;28;100845;-62
2023/12/07 10:46:52;;;;;;;48.70;9.38;;;;;;;;;;5021943;28;98518;-61
2023/12/07 10:49:21;;;;;;;19.48;8.85;;;;;;;;;;5014757;28;99506;-61
2023/12/07 10:52:03;;;;;;;38.20;10.35;;;;;;;;;;5012340;28;98991;-60
2023/12/07 10:54:51;;;;;;;21.45;9.77;;;;;;;;;;5016492;28;99228;-61
2023/12/07 10:57:19;;;;;;;18.25;8.68;;;;;;;;;;5020668;28;100554;-62
2023/12/07 10:59:46;;;;;;;27.65;8.05;;;;;;;;;;5017235;28;98556;-62
2023/12/07 11:02:13;;;;;;;15.48;9.02;;;;;;;;;;5017170;28;99364;-63
2023/12/07 11:04:42;;;;;;;17.23;8.48;;;;;;;;;;5020364;28;100498;-63
2023/12/07 11:07:14;;;;;;;13.57;7.90;;;;;;;;;;5019850;28;98442;-62
2023/12/07 11:09:45;;;;;;;13.68;9.05;;;;;;;;;;5019413;27;99458;-62
2023/12/07 11:12:11;;;;;;;;;;;;;;;;;;5019914;28;98513;-62
2023/12/07 11:14:38;;;;;;;16.20;8.82;;;;;;;;;;5016436;27;129860;-62
2023/12/07 11:17:05;;;;;;;15.05;8.10;;;;;;;;;;5015255;28;99427;-61
2023/12/07 11:19:39;;;;;;;14.45;8.73;;;;;;;;;;5021802;28;97874;-62
2023/12/07 11:22:06;;;;;;;17.17;9.65;;;;;;;;;;5020555;28;99447;-62
2023/12/07 11:24:33;;;;;;;23.50;11.73;;;;;;;;;;5012369;28;99479;-62
2023/12/07 11:26:59;;;;;;;15.80;9.43;;;;;;;;;;5015213;28;99502;-62
2023/12/07 11:29:28;;;;;;;16.17;9.18;;;;;;;;;;5021219;28;99835;-62
2023/12/07 11:31:56;;;;;;;23.33;10.00;;;;;;;;;;5018176;27;98631;-62
2023/12/07 11:34:38;;;;;;;14.60;9.07;;;;;;;;;;5013621;28;99183;-62
2023/12/07 11:37:07;;;;;;;17.60;10.02;;;;;;;;;;5018821;27;99449;-62
2023/12/07 11:39:36;;;;;;;21.70;10.25;;;;;;;;;;5016405;28;98546;-62
2023/12/07 11:42:06;;;;;;;31.63;11.25;;;;;;;;;;5010662;28;99196;-62
2023/12/07 11:44:33;;;;;;;25.75;10.77;;;;;;;;;;5021322;27;98912;-62
2023/12/07 11:47:00;;;;;;;22.92;11.15;;;;;;;;;;5019506;27;98441;-62
2023/12/07 11:49:27;;;;;;;26.42;11.60;;;;;;;;;;5020479;27;99181;-62
2023/12/07 11:52:11;;;;;;;21.25;10.70;;;;;;;;;;5016654;28;100176;-62
2023/12/07 11:54:38;;;;;;;26.80;11.07;;;;;;;;;;5016934;28;99860;-62
2023/12/07 11:57:04;;;;;;;29.20;12.27;;;;;;;;;;5017581;28;100683;-62
2023/12/07 11:59:31;;;;;;;23.25;11.93;;;;;;;;;;5019440;27;98582;-62
2023/12/07 12:02:00;;;;;;;23.02;12.35;;;;;;;;;;5016608;27;99511;-62
2023/12/07 12:04:27;;;;;;;35.17;12.90;;;;;;;;;;5016195;28;99688;-62
2023/12/07 12:06:54;;;;;;;26.73;12.60;;;;;;;;;;5010110;28;98752;-63
2023/12/07 12:09:20;;;;;;;24.63;12.73;;;;;;;;;;5019982;28;100174;-63
2023/12/07 12:12:00;;;;;;;22.05;13.25;;;;;;;;;;5011214;28;99664;-62
2023/12/07 12:14:30;;;;;;;30.53;13.57;;;;;;;;;;5013004;27;98560;-62
2023/12/07 12:16:57;;;;;;;30.80;14.80;;;;;;;;;;5013955;28;100198;-62
2023/12/07 12:19:24;;;;;;;31.55;14.25;;;;;;;;;;5012492;28;98727;-62
2023/12/07 12:22:00;;;;;;;30.85;16.00;;;;;;;;;;5013079;28;99262;-62
2023/12/07 12:24:30;;;;;;;30.30;15.23;;;;;;;;;;5016603;28;99631;-62
2023/12/07 12:26:57;;;;;;;25.98;13.93;;;;;;;;;;5016338;28;98511;-62
2023/12/07 12:29:23;;;;;;;26.45;14.02;;;;;;;;;;5013991;28;99231;-62
2023/12/07 12:31:59;;;;;;;27.85;13.65;;;;;;;;;;5013600;28;99719;-62
2023/12/07 12:34:25;;;;;;;26.40;14.80;;;;;;;;;;5020442;27;97624;-63
2023/12/07 12:36:55;;;;;;;28.27;16.35;;;;;;;;;;5013954;28;99545;-62
2023/12/07 12:39:27;;;;;;;30.92;15.77;;;;;;;;;;5011796;28;98695;-62
2023/12/07 12:42:00;;;;;;;40.90;18.27;;;;;;;;;;5007204;27;99313;-62
2023/12/07 12:44:26;;;;;;;40.08;18.17;;;;;;;;;;5012432;27;99556;-62
2023/12/07 12:47:01;;;;;;;44.85;20.77;;;;;;;;;;5016489;28;99209;-62
2023/12/07 12:49:37;;;;;;;49.97;23.42;;;;;;;;;;5015798;28;99226;-62
2023/12/07 12:52:04;;;;;;;44.80;19.85;;;;;;;;;;5014165;28;99605;-63
2023/12/07 12:54:32;;;;;;;42.88;20.02;;;;;;;;;;5019395;27;98606;-64
2023/12/07 12:56:59;;;;;;;40.33;19.63;;;;;;;;;;5017462;27;99258;-64
2023/12/07 12:59:25;;;;;;;34.25;16.10;;;;;;;;;;5013369;28;99701;-64
2023/12/07 13:01:52;;;;;;;49.70;20.33;;;;;;;;;;5013469;27;99534;-64
2023/12/07 13:04:19;;;;;;;33.20;16.27;;;;;;;;;;5013806;28;99405;-64
2023/12/07 13:06:46;;;;;;;30.30;15.10;;;;;;;;;;5012304;28;99321;-64
2023/12/07 13:09:12;;;;;;;28.65;14.80;;;;;;;;;;5014910;27;99954;-64
2023/12/07 13:11:39;;;;;;;27.27;15.43;;;;;;;;;;5017295;27;99498;-63
2023/12/07 13:14:07;;;;;;;31.20;16.52;;;;;;;;;;5014071;28;98568;-64
2023/12/07 13:16:34;;;;;;;25.45;15.73;;;;;;;;;;5017833;27;99242;-63
2023/12/07 13:19:01;;;;;;;27.13;15.18;;;;;;;;;;5019042;28;99422;-64
2023/12/07 13:21:27;;;;;;;28.00;15.57;;;;;;;;;;5015437;28;98967;-64
2023/12/07 13:23:53;;;;;;;28.25;15.52;;;;;;;;;;5012870;27;98776;-63
2023/12/07 13:26:23;;;;;;;23.13;14.38;;;;;;;;;;5014030;28;101047;-64
2023/12/07 13:28:49;;;;;;;27.38;15.55;;;;;;;;;;5013727;28;99442;-64
2023/12/07 13:31:16;;;;;;;28.30;15.63;;;;;;;;;;5015171;28;100370;-63
2023/12/07 13:33:42;;;;;;;31.70;16.73;;;;;;;;;;5016712;28;98930;-64
2023/12/07 13:36:22;;;;;;;33.05;16.52;;;;;;;;;;5015142;28;99378;-64
2023/12/07 13:38:49;;;;;;;32.85;18.08;;;;;;;;;;5016755;28;99419;-63
2023/12/07 13:41:16;;;;;;;34.10;19.40;;;;;;;;;;5013059;27;101731;-64
2023/12/07 13:43:42;;;;;;;35.90;21.23;;;;;;;;;;5014471;28;100611;-64
2023/12/07 13:46:10;;;;;;;34.53;19.17;;;;;;;;;;5012910;28;98618;-64
2023/12/07 13:48:37;;;;;;;34.70;20.65;;;;;;;;;;5014790;27;99785;-64
2023/12/07 13:51:04;;;;;;;39.88;21.50;;;;;;;;;;5016012;27;99568;-64
2023/12/07 13:53:30;;;;;;;36.45;20.55;;;;;;;;;;5016063;27;98525;-64
2023/12/07 13:55:57;;;;;;;36.53;19.95;;;;;;;;;;5010843;28;99380;-63
2023/12/07 13:58:23;;;;;;;36.75;20.73;;;;;;;;;;5014753;27;99400;-63
2023/12/07 14:00:50;;;;;;;31.35;19.05;;;;;;;;;;5021175;27;99756;-64
2023/12/07 14:03:16;;;;;;;49.72;20.02;;;;;;;;;;5022908;28;99682;-63
2023/12/07 14:05:42;;;;;;;40.83;20.92;;;;;;;;;;5020843;27;99095;-63
2023/12/07 14:08:09;;;;;;;37.33;19.40;;;;;;;;;;5014954;28;100476;-63
2023/12/07 14:10:35;;;;;;;39.85;21.38;;;;;;;;;;5017905;28;99306;-63
2023/12/07 14:13:02;;;;;;;38.38;19.88;;;;;;;;;;5017544;27;97921;-64
2023/12/07 14:15:28;;;;;;;46.95;22.30;;;;;;;;;;5020923;27;98679;-63
2023/12/07 14:18:10;;;;;;;43.05;20.73;;;;;;;;;;5014944;27;99276;-62
2023/12/07 14:20:36;;;;;;;39.58;20.27;;;;;;;;;;5017730;28;99256;-62